createdAt,value
2018-06-19T00:00:55.283Z,4.97
2018-06-19T00:03:22.436Z,4.60
2018-06-19T00:05:49.630Z,6.07
2018-06-19T00:08:16.803Z,6.67
2018-06-19T00:10:43.967Z,7.27
2018-06-19T00:13:11.267Z,6.70
2018-06-19T00:15:38.436Z,5.53
2018-06-19T00:18:10.335Z,5.00
2018-06-19T00:20:37.568Z,4.60
2018-06-19T00:23:04.768Z,6.63
2018-06-19T00:25:31.980Z,4.40
2018-06-19T00:27:59.166Z,5.10
2018-06-19T00:30:26.335Z,4.83
2018-06-19T00:32:53.516Z,4.87
2018-06-19T00:35:20.684Z,7.43
2018-06-19T00:37:47.875Z,5.63
2018-06-19T00:40:15.024Z,6.57
2018-06-19T00:42:42.271Z,5.73
2018-06-19T00:45:09.427Z,5.67
2018-06-19T00:47:36.769Z,5.17
2018-06-19T00:50:04.143Z,4.77
2018-06-19T00:52:31.387Z,4.87
2018-06-19T00:54:58.551Z,5.07
2018-06-19T00:57:25.704Z,5.10
2018-06-19T00:59:52.852Z,7.50
2018-06-19T01:02:20.012Z,5.57
2018-06-19T01:04:47.164Z,5.30
2018-06-19T01:07:14.363Z,5.13
2018-06-19T01:09:41.536Z,5.20
2018-06-19T01:12:08.732Z,4.83
2018-06-19T01:14:35.903Z,6.47
2018-06-19T01:17:03.062Z,6.17
2018-06-19T01:19:30.223Z,6.07
2018-06-19T01:21:57.375Z,5.80
2018-06-19T01:24:24.563Z,5.67
2018-06-19T01:26:51.747Z,6.60
2018-06-19T01:29:18.912Z,5.17
2018-06-19T01:31:46.086Z,5.50
2018-06-19T01:34:13.262Z,8.17
2018-06-19T01:36:40.464Z,8.53
2018-06-19T01:39:08.831Z,7.50
2018-06-19T01:41:35.987Z,6.57
2018-06-19T01:44:03.160Z,5.93
2018-06-19T01:46:30.320Z,7.90
2018-06-19T01:48:57.476Z,6.83
2018-06-19T01:51:24.632Z,6.03
2018-06-19T01:53:51.811Z,6.67
2018-06-19T01:56:18.965Z,5.80
2018-06-19T01:58:46.131Z,8.50
2018-06-19T02:01:13.287Z,6.33
2018-06-19T02:03:40.464Z,7.00
2018-06-19T02:06:07.649Z,10.17
2018-06-19T02:08:34.816Z,6.43
2018-06-19T02:11:02.372Z,7.83
2018-06-19T02:13:29.544Z,6.67
2018-06-19T02:15:56.692Z,6.53
2018-06-19T02:18:23.875Z,6.10
2018-06-19T02:20:51.160Z,6.40
2018-06-19T02:23:18.337Z,6.73
2018-06-19T02:25:45.487Z,7.30
2018-06-19T02:28:12.652Z,6.83
2018-06-19T02:30:40.049Z,6.40
2018-06-19T02:33:07.212Z,6.27
2018-06-19T02:35:34.387Z,6.80
2018-06-19T02:38:01.565Z,6.30
2018-06-19T02:40:28.772Z,8.73
2018-06-19T02:42:55.949Z,7.70
2018-06-19T02:45:23.112Z,7.53
2018-06-19T02:47:50.268Z,5.97
2018-06-19T02:50:17.485Z,6.60
2018-06-19T02:52:44.609Z,7.57
2018-06-19T02:55:11.788Z,7.90
2018-06-19T02:57:38.968Z,7.17
2018-06-19T03:00:06.172Z,8.07
2018-06-19T03:02:33.364Z,7.33
2018-06-19T03:05:00.532Z,6.57
2018-06-19T03:07:27.679Z,8.50
2018-06-19T03:09:54.851Z,11.07
2018-06-19T03:12:22.020Z,9.87
2018-06-19T03:14:49.204Z,11.13
2018-06-19T03:17:16.371Z,7.33
2018-06-19T03:19:43.542Z,10.27
2018-06-19T03:22:10.696Z,7.60
2018-06-19T03:24:37.883Z,8.97
2018-06-19T03:27:05.257Z,7.77
2018-06-19T03:29:32.440Z,9.10
2018-06-19T03:31:59.599Z,7.70
2018-06-19T03:34:26.772Z,8.43
2018-06-19T03:36:53.956Z,8.00
2018-06-19T03:39:21.123Z,8.03
2018-06-19T03:41:48.287Z,8.70
2018-06-19T03:44:15.436Z,7.60
2018-06-19T03:46:42.600Z,10.17
2018-06-19T03:51:43.648Z,9.77
2018-06-19T03:54:10.805Z,8.80
2018-06-19T03:56:37.967Z,10.20
2018-06-19T03:59:05.136Z,7.87
2018-06-19T04:01:32.312Z,8.23
2018-06-19T04:03:59.468Z,9.10
2018-06-19T04:06:30.431Z,12.27
2018-06-19T04:08:57.811Z,9.40
2018-06-19T04:11:24.988Z,9.53
2018-06-19T04:13:52.144Z,8.07
2018-06-19T04:16:19.303Z,7.93
2018-06-19T04:18:46.469Z,8.43
2018-06-19T04:21:13.648Z,7.90
2018-06-19T04:23:40.820Z,8.87
2018-06-19T04:26:07.980Z,9.10
2018-06-19T04:28:35.131Z,8.37
2018-06-19T04:31:02.289Z,8.83
2018-06-19T04:33:29.555Z,7.77
2018-06-19T04:35:56.644Z,9.97
2018-06-19T04:38:23.800Z,11.30
2018-06-19T04:40:50.973Z,8.90
2018-06-19T04:43:18.140Z,7.40
2018-06-19T04:45:45.309Z,9.67
2018-06-19T04:48:12.492Z,7.10
2018-06-19T04:50:39.677Z,12.77
2018-06-19T04:53:06.831Z,7.00
2018-06-19T04:55:33.996Z,8.50
2018-06-19T04:58:01.175Z,7.87
2018-06-19T05:00:28.325Z,7.40
2018-06-19T05:02:55.517Z,5.90
2018-06-19T05:05:22.686Z,7.37
2018-06-19T05:07:49.909Z,7.57
2018-06-19T05:10:17.059Z,6.77
2018-06-19T05:12:44.418Z,7.80
2018-06-19T05:15:11.567Z,8.77
2018-06-19T05:17:38.848Z,7.70
2018-06-19T05:20:06.010Z,9.80
2018-06-19T05:22:33.175Z,7.93
2018-06-19T05:25:00.344Z,9.97
2018-06-19T05:27:27.530Z,7.80
2018-06-19T05:29:54.692Z,9.40
2018-06-19T05:32:21.870Z,8.73
2018-06-19T05:34:49.188Z,8.60
2018-06-19T05:37:16.380Z,9.50
2018-06-19T05:39:43.564Z,7.27
2018-06-19T05:42:10.743Z,6.07
2018-06-19T05:44:37.919Z,6.70
2018-06-19T05:47:05.143Z,5.83
2018-06-19T05:49:32.341Z,6.20
2018-06-19T05:51:59.512Z,7.87
2018-06-19T05:54:26.704Z,6.80
2018-06-19T05:56:53.869Z,6.43
2018-06-19T05:59:21.035Z,6.30
2018-06-19T06:01:48.201Z,6.30
2018-06-19T06:04:15.404Z,7.23
2018-06-19T06:06:42.620Z,6.87
2018-06-19T06:09:10.168Z,6.30
2018-06-19T06:11:37.354Z,7.83
2018-06-19T06:14:04.556Z,6.30
2018-06-19T06:16:31.795Z,7.17
2018-06-19T06:18:58.976Z,6.97
2018-06-19T06:21:26.177Z,7.40
2018-06-19T06:23:53.355Z,6.10
2018-06-19T06:26:20.511Z,6.87
2018-06-19T06:28:47.691Z,5.67
2018-06-19T06:31:14.911Z,7.53
2018-06-19T06:33:42.029Z,5.93
2018-06-19T06:36:09.208Z,6.83
2018-06-19T06:38:36.380Z,6.03
2018-06-19T06:41:03.575Z,6.53
2018-06-19T06:43:30.757Z,5.97
2018-06-19T06:45:58.188Z,5.40
2018-06-19T06:48:25.448Z,4.47
2018-06-19T06:50:52.741Z,5.60
2018-06-19T06:53:19.901Z,7.30
2018-06-19T06:55:47.071Z,5.20
2018-06-19T06:58:14.253Z,5.80
2018-06-19T07:00:41.436Z,5.13
2018-06-19T07:03:08.600Z,4.37
2018-06-19T07:05:35.795Z,4.60
2018-06-19T07:08:02.953Z,4.40
2018-06-19T07:10:30.116Z,5.30
2018-06-19T07:12:57.288Z,4.87
2018-06-19T07:15:24.461Z,4.10
2018-06-19T07:17:51.620Z,3.97
2018-06-19T07:20:18.795Z,3.60
2018-06-19T07:22:45.948Z,4.63
2018-06-19T07:25:13.196Z,4.40
2018-06-19T07:27:40.351Z,5.33
2018-06-19T07:30:07.540Z,13.40
2018-06-19T07:32:34.716Z,14.33
2018-06-19T07:35:17.969Z,4.50
2018-06-19T08:24:17.932Z,2.67
2018-06-19T08:26:45.105Z,2.57
2018-06-19T08:29:13.083Z,3.47
2018-06-19T08:31:41.467Z,2.80
2018-06-19T08:34:16.060Z,2.93
2018-06-19T08:36:43.366Z,3.47
2018-06-19T08:39:22.037Z,2.97
2018-06-19T08:41:49.260Z,2.77
2018-06-19T08:44:16.397Z,3.73
2018-06-19T08:46:43.568Z,2.80
2018-06-19T08:49:11.829Z,2.97
2018-06-19T08:51:39.064Z,3.73
2018-06-19T08:54:06.213Z,3.83
2018-06-19T08:56:34.065Z,4.83
2018-06-19T08:59:01.231Z,2.80
2018-06-19T09:01:28.411Z,3.17
2018-06-19T09:03:55.619Z,2.60
2018-06-19T09:06:27.120Z,2.47
2018-06-19T09:08:54.307Z,2.60
2018-06-19T09:11:21.491Z,3.83
2018-06-19T09:13:48.704Z,2.90
2018-06-19T09:16:30.819Z,4.13
2018-06-19T09:18:58.004Z,2.70
2018-06-19T09:21:25.165Z,4.70
2018-06-19T09:23:52.340Z,2.37
2018-06-19T09:26:19.532Z,2.60
2018-06-19T09:28:46.708Z,3.30
2018-06-19T09:31:13.878Z,2.40
2018-06-19T09:33:41.036Z,2.50
2018-06-19T09:36:08.292Z,2.60
2018-06-19T09:38:35.460Z,2.83
2018-06-19T09:41:02.759Z,2.60
2018-06-19T09:43:29.969Z,3.87
2018-06-19T09:45:57.160Z,3.00
2018-06-19T09:48:24.339Z,3.00
2018-06-19T09:50:51.577Z,3.57
2018-06-19T09:53:18.817Z,3.63
2018-06-19T09:55:46.200Z,3.10
2018-06-19T09:58:13.363Z,3.20
2018-06-19T10:00:40.757Z,3.20
2018-06-19T10:03:07.969Z,3.63
2018-06-19T10:05:35.319Z,2.93
2018-06-19T10:08:02.714Z,3.00
2018-06-19T10:10:29.932Z,3.03
2018-06-19T10:12:57.356Z,3.10
2018-06-19T10:15:24.614Z,3.73
2018-06-19T10:17:51.921Z,2.90
2018-06-19T10:20:19.120Z,4.67
2018-06-19T10:22:46.322Z,2.77
2018-06-19T10:25:13.564Z,2.60
2018-06-19T10:27:40.780Z,2.50
2018-06-19T10:30:07.954Z,2.97
2018-06-19T10:32:35.188Z,2.20
2018-06-19T10:35:02.516Z,2.13
2018-06-19T10:37:30.095Z,2.67
2018-06-19T10:39:57.285Z,3.43
2018-06-19T10:42:24.488Z,2.47
2018-06-19T10:44:51.664Z,2.27
2018-06-19T10:47:18.952Z,2.17
2018-06-19T10:49:46.104Z,2.50
2018-06-19T10:52:13.272Z,3.50
2018-06-19T10:54:40.423Z,2.47
2018-06-19T10:57:07.628Z,2.90
2018-06-19T10:59:34.876Z,2.23
2018-06-19T11:02:02.052Z,2.30
2018-06-19T11:04:29.220Z,1.83
2018-06-19T11:06:57.063Z,3.00
2018-06-19T11:09:24.273Z,2.30
2018-06-19T11:11:51.460Z,3.30
2018-06-19T11:14:18.760Z,3.20
2018-06-19T11:16:45.932Z,2.23
2018-06-19T11:19:13.120Z,2.97
2018-06-19T11:21:40.308Z,3.00
2018-06-19T11:24:07.534Z,2.70
2018-06-19T11:26:34.868Z,2.50
2018-06-19T11:29:02.049Z,2.93
2018-06-19T11:31:29.219Z,2.77
2018-06-19T11:33:56.456Z,1.60
2018-06-19T11:36:23.637Z,2.73
2018-06-19T11:38:50.918Z,3.70
2018-06-19T11:41:18.084Z,1.93
2018-06-19T11:43:45.251Z,2.03
2018-06-19T11:46:12.432Z,3.17
2018-06-19T11:48:39.593Z,5.60
2018-06-19T11:51:07.005Z,3.13
2018-06-19T11:53:34.191Z,3.53
2018-06-19T11:56:01.400Z,2.73
2018-06-19T11:58:28.571Z,2.37
2018-06-19T12:00:55.766Z,4.83
2018-06-19T12:03:22.952Z,2.23
2018-06-19T12:05:50.125Z,3.53
2018-06-19T12:08:17.301Z,3.80
2018-06-19T12:10:44.477Z,3.17
2018-06-19T12:13:11.673Z,4.20
2018-06-19T12:15:38.852Z,2.90
2018-06-19T12:18:06.034Z,2.23
2018-06-19T12:20:33.228Z,3.50
2018-06-19T12:23:00.398Z,4.83
2018-06-19T12:25:27.598Z,2.50
2018-06-19T12:27:54.833Z,1.97
2018-06-19T12:30:22.115Z,2.13
2018-06-19T12:32:49.275Z,3.10
2018-06-19T12:35:16.440Z,3.43
2018-06-19T12:37:43.647Z,3.43
2018-06-19T12:40:10.812Z,3.50
2018-06-19T12:42:37.999Z,2.00
2018-06-19T12:45:05.184Z,2.00
2018-06-19T12:47:32.356Z,2.27
2018-06-19T12:51:39.253Z,2.10
2018-06-19T12:54:14.108Z,3.07
2018-06-19T12:56:41.283Z,4.00
2018-06-19T12:59:08.475Z,3.10
2018-06-19T13:01:35.632Z,2.17
2018-06-19T13:04:14.388Z,3.43
2018-06-19T13:06:41.547Z,3.40
2018-06-19T13:09:08.868Z,3.77
2018-06-19T13:11:36.224Z,4.30
2018-06-19T13:14:15.009Z,2.20
2018-06-19T13:16:53.761Z,2.80
2018-06-19T13:19:32.628Z,2.97
2018-06-19T13:21:59.828Z,2.63
2018-06-19T13:24:27.000Z,2.67
2018-06-19T13:26:54.152Z,1.87
2018-06-19T13:29:47.274Z,2.10
2018-06-19T13:32:14.631Z,2.23
2018-06-19T13:34:41.828Z,2.57
2018-06-19T13:37:08.996Z,2.37
2018-06-19T13:39:37.060Z,3.20
2018-06-19T13:42:17.420Z,2.43
2018-06-19T13:44:58.911Z,2.63
2018-06-19T13:47:26.109Z,1.83
2018-06-19T13:49:53.303Z,2.67
2018-06-19T13:52:20.468Z,2.60
2018-06-19T13:54:47.644Z,3.30
2018-06-19T13:58:30.244Z,2.43
2018-06-19T14:00:57.416Z,2.43
2018-06-19T14:03:24.567Z,3.77
2018-06-19T14:05:51.744Z,1.93
2018-06-19T14:08:28.516Z,2.10
2018-06-19T14:11:07.412Z,2.47
2018-06-19T14:13:34.580Z,2.00
2018-06-19T14:16:01.790Z,4.30
2018-06-19T14:18:28.945Z,2.90
2018-06-19T14:20:56.139Z,3.53
2018-06-19T14:23:23.300Z,4.03
2018-06-19T14:25:50.482Z,3.00
2018-06-19T14:28:17.651Z,3.23
2018-06-19T14:30:44.844Z,2.17
2018-06-19T14:33:12.053Z,2.17
2018-06-19T14:35:39.172Z,2.73
2018-06-19T14:38:06.336Z,1.90
2018-06-19T14:40:33.532Z,2.80
2018-06-19T14:43:01.615Z,2.30
2018-06-19T14:45:28.779Z,2.23
2018-06-19T14:47:55.943Z,2.10
2018-06-19T14:50:23.099Z,3.80
2018-06-19T14:52:50.281Z,1.77
2018-06-19T14:55:17.465Z,3.00
2018-06-19T14:57:51.567Z,3.73
2018-06-19T15:00:18.812Z,2.03
2018-06-19T15:02:46.004Z,2.83
2018-06-19T15:05:13.182Z,2.07
2018-06-19T15:07:46.849Z,2.37
2018-06-19T15:10:14.477Z,2.37
2018-06-19T15:12:41.684Z,2.67
2018-06-19T15:15:08.837Z,2.30
2018-06-19T15:17:36.003Z,4.30
2018-06-19T15:20:03.514Z,3.00
2018-06-19T15:22:30.672Z,2.30
2018-06-19T15:24:57.923Z,3.07
2018-06-19T15:27:25.108Z,1.70
2018-06-19T15:29:52.428Z,3.20
2018-06-19T15:32:19.732Z,3.63
2018-06-19T15:34:46.903Z,4.43
2018-06-19T15:37:14.065Z,3.17
2018-06-19T15:39:41.231Z,2.07
2018-06-19T15:42:08.388Z,1.70
2018-06-19T15:44:35.570Z,2.80
2018-06-19T15:47:02.740Z,1.93
2018-06-19T15:49:29.963Z,2.10
2018-06-19T15:51:57.144Z,2.93
2018-06-19T15:54:24.320Z,2.70
2018-06-19T15:56:51.502Z,1.73
2018-06-19T15:59:18.815Z,2.57
2018-06-19T16:01:45.996Z,2.43
2018-06-19T16:04:13.167Z,3.63
2018-06-19T16:06:40.392Z,2.97
2018-06-19T16:09:08.995Z,2.13
2018-06-19T16:11:36.252Z,1.50
2018-06-19T16:14:03.489Z,2.43
2018-06-19T16:16:30.692Z,2.00
2018-06-19T16:18:57.864Z,3.30
2018-06-19T16:21:25.033Z,3.33
2018-06-19T16:23:52.291Z,3.53
2018-06-19T16:26:19.548Z,2.23
2018-06-19T16:28:46.720Z,1.97
2018-06-19T16:31:14.034Z,2.30
2018-06-19T16:33:41.256Z,3.03
2018-06-19T16:36:08.417Z,2.00
2018-06-19T16:38:35.581Z,1.70
2018-06-19T16:41:09.628Z,2.03
2018-06-19T16:43:36.781Z,2.07
2018-06-19T16:46:03.980Z,2.47
2018-06-19T16:48:31.165Z,2.20
2018-06-19T16:50:58.340Z,3.70
2018-06-19T16:53:25.516Z,3.23
2018-06-19T16:55:52.851Z,2.00
2018-06-19T16:58:20.096Z,2.10
2018-06-19T17:00:47.300Z,2.13
2018-06-19T17:03:14.460Z,1.93
2018-06-19T17:05:41.631Z,2.00
2018-06-19T17:08:08.788Z,2.43
2018-06-19T17:10:35.988Z,2.87
2018-06-19T17:13:03.168Z,2.00
2018-06-19T17:15:30.328Z,3.10
2018-06-19T17:17:57.509Z,2.10
2018-06-19T17:20:24.660Z,3.27
2018-06-19T17:22:51.828Z,3.23
2018-06-19T17:25:19.004Z,2.10
2018-06-19T17:27:46.164Z,3.37
2018-06-19T17:30:13.327Z,2.83
2018-06-19T17:32:40.555Z,1.87
2018-06-19T17:35:07.722Z,3.23
2018-06-19T17:37:34.924Z,3.30
2018-06-19T17:40:02.159Z,4.10
2018-06-19T17:42:29.344Z,3.93
2018-06-19T17:44:56.507Z,2.70
2018-06-19T17:47:23.748Z,2.63
2018-06-19T17:49:50.911Z,2.73
2018-06-19T17:52:18.153Z,4.03
2018-06-19T17:54:45.276Z,2.17
2018-06-19T17:57:12.444Z,3.07
2018-06-19T17:59:39.668Z,2.10
2018-06-19T18:02:07.453Z,2.30
2018-06-19T18:04:34.517Z,2.43
2018-06-19T18:07:01.704Z,2.90
2018-06-19T18:09:29.093Z,3.30
2018-06-19T18:11:56.245Z,2.87
2018-06-19T18:14:23.416Z,1.80
2018-06-19T18:16:50.589Z,1.97
2018-06-19T18:19:17.759Z,1.90
2018-06-19T18:21:44.968Z,2.53
2018-06-19T18:24:12.150Z,1.87
2018-06-19T18:26:39.324Z,2.00
2018-06-19T18:29:06.497Z,2.47
2018-06-19T18:31:33.664Z,2.10
2018-06-19T18:34:00.836Z,4.03
2018-06-19T18:36:28.016Z,2.83
2018-06-19T18:38:55.336Z,2.30
2018-06-19T18:41:22.509Z,2.57
2018-06-19T18:43:49.687Z,2.53
2018-06-19T18:46:16.896Z,1.90
2018-06-19T18:48:44.067Z,2.23
2018-06-19T18:51:11.239Z,2.67
2018-06-19T18:53:38.408Z,3.20
2018-06-19T18:56:05.580Z,4.03
2018-06-19T18:58:32.823Z,2.17
2018-06-19T19:01:00.025Z,3.60
2018-06-19T19:03:27.204Z,2.43
2018-06-19T19:05:54.447Z,2.00
2018-06-19T19:08:23.060Z,2.43
2018-06-19T19:10:52.492Z,2.77
2018-06-19T19:13:21.080Z,2.30
2018-06-19T19:16:54.696Z,3.67
2018-06-19T19:19:23.631Z,3.10
2018-06-19T19:21:51.187Z,2.73
2018-06-19T19:24:18.580Z,2.30
2018-06-19T19:26:51.588Z,4.73
2018-06-19T19:29:24.455Z,2.50
2018-06-19T19:31:51.635Z,2.07
2018-06-19T19:34:18.816Z,2.40
2018-06-19T19:36:51.832Z,3.57
2018-06-19T19:39:24.272Z,4.20
2018-06-19T19:41:51.530Z,3.83
2018-06-19T19:44:18.697Z,2.37
2018-06-19T19:46:51.491Z,3.63
2018-06-19T19:49:18.640Z,3.80
2018-06-19T19:51:46.781Z,4.07
2018-06-19T19:54:13.944Z,3.27
2018-06-19T19:56:46.812Z,3.70
2018-06-19T19:59:13.992Z,6.27
2018-06-19T20:01:41.157Z,3.83
2018-06-19T20:04:08.468Z,3.00
2018-06-19T20:06:35.692Z,2.63
2018-06-19T20:09:04.932Z,3.17
2018-06-19T20:11:32.100Z,3.03
2018-06-19T20:13:59.284Z,3.37
2018-06-19T20:16:26.466Z,5.27
2018-06-19T20:18:53.671Z,3.53
2018-06-19T20:21:21.209Z,3.80
2018-06-19T20:23:48.388Z,3.33
2018-06-19T20:26:15.552Z,3.73
2018-06-19T20:28:42.724Z,3.50
2018-06-19T20:31:09.873Z,2.87
2018-06-19T20:33:37.048Z,2.70
2018-06-19T20:36:04.275Z,3.60
2018-06-19T20:38:31.476Z,5.43
2018-06-19T20:40:58.648Z,2.50
2018-06-19T20:43:25.844Z,5.10
2018-06-19T20:45:53.001Z,2.57
2018-06-19T20:48:20.189Z,5.47
2018-06-19T20:50:47.515Z,2.57
2018-06-19T20:53:14.687Z,3.63
2018-06-19T20:55:41.852Z,3.77
2018-06-19T20:58:09.044Z,3.27
2018-06-19T21:00:36.205Z,3.47
2018-06-19T21:03:03.411Z,3.27
2018-06-19T21:05:30.576Z,2.80
2018-06-19T21:07:57.770Z,2.97
2018-06-19T21:10:24.956Z,2.60
2018-06-19T21:12:52.132Z,4.80
2018-06-19T21:15:19.299Z,2.60
2018-06-19T21:17:46.700Z,3.17
2018-06-19T21:20:13.901Z,3.30
2018-06-19T21:22:41.068Z,5.93
2018-06-19T21:25:08.512Z,2.83
2018-06-19T21:27:36.268Z,2.63
2018-06-19T21:30:03.849Z,4.53
2018-06-19T21:32:30.999Z,2.90
2018-06-19T21:34:58.171Z,3.10
2018-06-19T21:37:25.376Z,2.73
2018-06-19T21:39:52.554Z,3.43
2018-06-19T21:42:19.719Z,3.70
2018-06-19T21:44:46.904Z,4.03
2018-06-19T21:49:48.089Z,3.27
2018-06-19T21:52:15.244Z,3.30
2018-06-19T21:54:42.461Z,5.30
2018-06-19T21:57:09.738Z,3.87
2018-06-19T21:59:36.968Z,3.20
2018-06-19T22:02:04.208Z,5.37
2018-06-19T22:04:31.356Z,4.27
2018-06-19T22:06:58.558Z,3.90
2018-06-19T22:09:25.708Z,5.73
2018-06-19T22:11:52.871Z,5.70
2018-06-19T22:14:20.021Z,5.07
2018-06-19T22:16:47.208Z,3.90
2018-06-19T22:19:14.369Z,4.03
2018-06-19T22:21:41.705Z,3.90
2018-06-19T22:24:08.869Z,4.10
2018-06-19T22:26:36.032Z,3.77
2018-06-19T22:29:03.205Z,4.10
2018-06-19T22:31:30.375Z,4.20
2018-06-19T22:33:57.528Z,4.30
2018-06-19T22:36:24.688Z,4.63
2018-06-19T22:38:51.888Z,4.23
2018-06-19T22:41:19.053Z,5.30
2018-06-19T22:43:46.264Z,4.10
2018-06-19T22:46:13.457Z,4.30
2018-06-19T22:48:40.855Z,3.73
2018-06-19T22:51:08.024Z,4.27
2018-06-19T22:53:35.184Z,4.70
2018-06-19T22:56:02.363Z,5.47
2018-06-19T22:58:29.524Z,5.00
2018-06-19T23:00:56.684Z,4.40
2018-06-19T23:03:23.841Z,4.57
2018-06-19T23:05:50.971Z,5.00
2018-06-19T23:08:18.148Z,5.27
2018-06-19T23:10:45.312Z,4.40
2018-06-19T23:13:12.512Z,4.70
2018-06-19T23:15:39.663Z,4.37
2018-06-19T23:18:06.836Z,4.60
2018-06-19T23:20:34.003Z,4.80
2018-06-19T23:23:01.163Z,4.50
2018-06-19T23:25:28.332Z,4.73
2018-06-19T23:27:55.512Z,4.17
2018-06-19T23:30:22.683Z,5.00
2018-06-19T23:32:49.839Z,4.63
2018-06-19T23:35:17.036Z,4.33
2018-06-19T23:37:44.204Z,4.10
2018-06-19T23:40:11.617Z,4.20
2018-06-19T23:42:38.810Z,4.87
2018-06-19T23:45:05.983Z,4.50
2018-06-19T23:47:33.808Z,7.53
2018-06-19T23:50:01.001Z,5.63
2018-06-19T23:55:18.756Z,5.37
2018-06-19T23:57:45.921Z,5.37
